Aérodrome :
LOGIN :

S'inscrire | Disclaimer

   EN    FR    IT 

 










Légende :    VFR   VFR Marginal   IFR   IFR Intensif   IFR Très Intensif
Visi : 
Plafond : 
>= 8 km
>= 3000ft
5 à 8 km
1000 à 3000 ft
1500m à 5 km
500 à 1000 ft
800 à 1500m
200 à 500 ft
< 800m
< 200 ft
Symboles :   Orages  Brouillard  Fortes neiges  Fortes précipitations  Vent > 20 kt
SIGMETs :   Divers  Orages  Givrage  Turbulence  Onde Orograph.  Cendres Volcan.







- Altitude de l'aérodrome : 333 ft


LIPL - Ghedi Brescia (Mil)

DERNIER METAR :
  • 202155Z 28006KT CAVOK 22/15 Q1011 RMK FEW FEW200 VIS MIN 9999 WIND THR31 27006KT WIND THR13 26005KT BLU

METARs EXPIRÉS :
  • 202055Z 28005KT CAVOK 23/15 Q1011 RMK SCT SCT200 VIS MIN 9999 WIND THR31 28007KT WIND THR13 28005KT BLU
  • 201955Z 27003KT CAVOK 23/14 Q1011 RMK SCT SCT200 VIS MIN 9999 WIND THR31 26005KT WIND THR13 28003KT BLU

TAF TAF LIPL
Valide du 20 à 21h jusqu'au 21 à 06h UTC


202000Z 2021/2106 28005KT CAVOK
Pas de NOTAMs connus pour ce terrain.



MET'MAP, la Météo Aéronautique d'un coup d'oeil ! - Copyright ORBIFLY Décembre 2007 - Disclaimer

ORBIFLY MET'MAP TEAM :

Programmation & Développement : Alexandra Zaïnal
Conception & Développement : Baudouin d'Aumeries
Co-Programmation & Développement : Marc-Olivier Méhu
Soutien technique & logistique : Manuel Goepfert

Contact : metmap@orbifly.com




SOURCES & CREDITS :

   NOAA